SLJE/SJS METAR and TAF weather

Enter ICAO airport designator
Station Type Date Time Source
SLJE METAR 2019/12/05 22:00 UTC NOAA

SLJE 052200Z 18010KT 9999 OVC015 21/16 Q1016


Station Type Date Time Source
SLJE Decoded METAR 2019/12/05 22:00 UTC NOAA

San Jose De Chiquitos, Bolivia (SLJE) 17-48S 060-44W
Dec 05, 2019 - 05:00 PM EST / 2019.12.05 2200 UTC
Wind: from the S (180 degrees) at 12 MPH (10 KT):0
Visibility: greater than 7 mile(s):0
Sky conditions: overcast
Temperature: 69 F (21 C)
Dew Point: 60 F (16 C)
Relative Humidity: 73%
Pressure (altimeter): 30.00 in. Hg (1016 hPa)
ob: SLJE 052200Z 18010KT 9999 OVC015 21/16 Q1016
cycle: 22

Station Type Date Time Source
SLJE TAF 2009/01/07 11:00 UTC NOAA

METAR SLJE 071100Z 00000KT 9999 SKC 21/18 Q1014

Example: see airport list